This is the latest recevied weather packets stored in our database for station/object VE2JOS. If no packets are shown the sender has not sent any weather packets the latest 10 day(s).
| Time | Temp. | Humidity | Pressure | Rain* | Wind** | Luminosity | Snow |
|---|---|---|---|---|---|---|---|
| 1777512935 | 15° C | 76% | - | 0 mm | - | - | - |
| 1777509356 | 15° C | 71% | - | 0 mm | - | - | - |
| 1777507536 | 15.56° C | 69% | - | 0 mm | - | - | - |
| 1777505755 | 15.56° C | 70% | - | 0 mm | - | - | - |
| 1777503935 | 15.56° C | 71% | - | 0 mm | - | - | - |
| 1777499755 | 16.67° C | 66% | - | 0 mm | - | - | - |
| 1777498535 | 17.22° C | 65% | - | 0 mm | - | - | - |
| 1777497336 | 17.22° C | 65% | - | 0 mm | - | - | - |
| 1777487736 | 18.33° C | 54% | - | 0 mm | - | - | - |
| 1777486536 | 18.33° C | 54% | - | 0 mm | - | - | - |
| 1777484756 | 19.44° C | 53% | - | 0 mm | - | - | - |
| 1777481155 | 18.33° C | 56% | - | 0 mm | - | - | - |
| 1777477537 | 18.89° C | 51% | - | 0 mm | - | - | - |
| 1777476335 | 18.33° C | 52% | - | 0 mm | - | - | - |
| 1777473336 | 16.67° C | 53% | - | 0 mm | - | - | - |
| 1777472737 | 16.67° C | 51% | - | 0 mm | - | - | - |
| 1777470335 | 17.22° C | 48% | - | 0 mm | - | - | - |
| 1777469135 | 16.67° C | 47% | - | 0 mm | - | - | - |
| 1777467935 | 15.56° C | 47% | - | 0 mm | - | - | - |
| 1777466735 | 15° C | 48% | - | 0 mm | - | - | - |
| 1777466135 | 14.44° C | 50% | - | 0 mm | - | - | - |
| 1777464335 | 13.89° C | 49% | - | 0 mm | - | - | - |
| 1777462535 | 13.89° C | 49% | - | 0 mm | - | - | - |
| 1777456535 | 13.89° C | 52% | - | 0 mm | - | - | - |
| 1777454735 | 13.89° C | 52% | - | 0 mm | - | - | - |
* Rain latest hour (hover to see other rain measurements)
** Current wind speed in m/s (hover to see current wind gust speed)